sensor_id;sensor_type;location;lat;lon;timestamp;pressure;altitude;pressure_sealevel;temperature;humidity
16777;BME280;8505;49.456;8.164;2024-01-07T00:01:24;99365.38;;;4.14;98.87
16777;BME280;8505;49.456;8.164;2024-01-07T00:03:53;99363.19;;;4.19;99.03
16777;BME280;8505;49.456;8.164;2024-01-07T00:06:21;99362.09;;;4.12;98.55
16777;BME280;8505;49.456;8.164;2024-01-07T00:08:49;99358.59;;;4.21;97.87
16777;BME280;8505;49.456;8.164;2024-01-07T00:11:17;99361.50;;;4.27;98.02
16777;BME280;8505;49.456;8.164;2024-01-07T00:13:45;99367.97;;;4.33;97.81
16777;BME280;8505;49.456;8.164;2024-01-07T00:16:13;99362.19;;;4.29;97.71
16777;BME280;8505;49.456;8.164;2024-01-07T00:18:40;99359.69;;;4.28;97.67
16777;BME280;8505;49.456;8.164;2024-01-07T00:21:10;99363.56;;;4.14;97.77
16777;BME280;8505;49.456;8.164;2024-01-07T00:23:37;99369.13;;;4.11;98.21
16777;BME280;8505;49.456;8.164;2024-01-07T00:26:05;99373.22;;;4.14;97.89
16777;BME280;8505;49.456;8.164;2024-01-07T00:28:33;99374.88;;;4.15;98.16
16777;BME280;8505;49.456;8.164;2024-01-07T00:31:01;99373.09;;;4.15;98.46
16777;BME280;8505;49.456;8.164;2024-01-07T00:33:30;99375.44;;;4.18;97.24
16777;BME280;8505;49.456;8.164;2024-01-07T00:35:59;99375.16;;;4.31;97.36
16777;BME280;8505;49.456;8.164;2024-01-07T00:38:28;99375.97;;;4.22;97.13
16777;BME280;8505;49.456;8.164;2024-01-07T00:40:56;99379.72;;;4.19;97.27
16777;BME280;8505;49.456;8.164;2024-01-07T00:43:23;99368.25;;;4.20;97.61
16777;BME280;8505;49.456;8.164;2024-01-07T00:45:51;99377.25;;;4.18;97.22
16777;BME280;8505;49.456;8.164;2024-01-07T00:48:19;99372.41;;;4.23;97.09
16777;BME280;8505;49.456;8.164;2024-01-07T00:50:46;99372.66;;;4.20;96.89
16777;BME280;8505;49.456;8.164;2024-01-07T00:53:14;99385.50;;;4.23;97.60
16777;BME280;8505;49.456;8.164;2024-01-07T00:55:43;99388.56;;;4.18;97.24
16777;BME280;8505;49.456;8.164;2024-01-07T00:58:11;99396.41;;;4.18;97.53
16777;BME280;8505;49.456;8.164;2024-01-07T01:00:40;99387.03;;;4.25;97.36
16777;BME280;8505;49.456;8.164;2024-01-07T01:03:08;99392.97;;;4.18;97.17
16777;BME280;8505;49.456;8.164;2024-01-07T01:05:35;99395.88;;;4.05;97.82
16777;BME280;8505;49.456;8.164;2024-01-07T01:08:04;99398.47;;;4.15;98.04
16777;BME280;8505;49.456;8.164;2024-01-07T01:10:32;99397.38;;;4.07;97.62
16777;BME280;8505;49.456;8.164;2024-01-07T01:13:01;99404.97;;;4.01;98.08
16777;BME280;8505;49.456;8.164;2024-01-07T01:15:29;99404.81;;;4.02;98.10
16777;BME280;8505;49.456;8.164;2024-01-07T01:17:56;99407.03;;;3.97;98.76
16777;BME280;8505;49.456;8.164;2024-01-07T01:20:25;99412.28;;;4.07;98.00
16777;BME280;8505;49.456;8.164;2024-01-07T01:22:52;99414.34;;;4.03;98.14
16777;BME280;8505;49.456;8.164;2024-01-07T01:25:20;99417.09;;;4.12;97.73
16777;BME280;8505;49.456;8.164;2024-01-07T01:27:48;99412.41;;;4.15;97.85
16777;BME280;8505;49.456;8.164;2024-01-07T01:30:17;99420.53;;;4.02;97.67
16777;BME280;8505;49.456;8.164;2024-01-07T01:32:45;99423.56;;;4.07;97.26
16777;BME280;8505;49.456;8.164;2024-01-07T01:35:13;99419.88;;;4.00;97.35
16777;BME280;8505;49.456;8.164;2024-01-07T01:37:41;99413.78;;;3.90;98.13
16777;BME280;8505;49.456;8.164;2024-01-07T01:40:09;99426.47;;;4.04;97.95
16777;BME280;8505;49.456;8.164;2024-01-07T01:42:38;99419.03;;;4.00;97.34
16777;BME280;8505;49.456;8.164;2024-01-07T01:45:06;99417.78;;;4.04;97.29
16777;BME280;8505;49.456;8.164;2024-01-07T01:47:35;99425.22;;;4.08;97.66
16777;BME280;8505;49.456;8.164;2024-01-07T01:50:04;99424.66;;;3.95;97.49
16777;BME280;8505;49.456;8.164;2024-01-07T01:52:32;99425.94;;;4.01;97.29
16777;BME280;8505;49.456;8.164;2024-01-07T01:55:01;99426.19;;;3.98;97.51
16777;BME280;8505;49.456;8.164;2024-01-07T01:57:33;99429.63;;;3.98;97.85
16777;BME280;8505;49.456;8.164;2024-01-07T02:00:02;99428.81;;;3.98;98.10
16777;BME280;8505;49.456;8.164;2024-01-07T02:02:31;99433.34;;;3.96;98.35
16777;BME280;8505;49.456;8.164;2024-01-07T02:05:03;99434.19;;;3.96;97.78
16777;BME280;8505;49.456;8.164;2024-01-07T02:07:31;99428.81;;;4.07;98.07
16777;BME280;8505;49.456;8.164;2024-01-07T02:09:59;99437.78;;;4.15;97.85
16777;BME280;8505;49.456;8.164;2024-01-07T02:12:27;99430.63;;;4.07;98.30
16777;BME280;8505;49.456;8.164;2024-01-07T02:14:55;99433.25;;;4.07;97.82
16777;BME280;8505;49.456;8.164;2024-01-07T02:17:22;99432.09;;;3.90;98.46
16777;BME280;8505;49.456;8.164;2024-01-07T02:19:50;99420.97;;;3.88;98.62
16777;BME280;8505;49.456;8.164;2024-01-07T02:22:19;99435.16;;;3.76;99.38
16777;BME280;8505;49.456;8.164;2024-01-07T02:24:48;99429.19;;;3.84;99.03
16777;BME280;8505;49.456;8.164;2024-01-07T02:27:16;99436.09;;;3.75;99.17
16777;BME280;8505;49.456;8.164;2024-01-07T02:29:44;99434.19;;;3.87;100.00
16777;BME280;8505;49.456;8.164;2024-01-07T02:32:12;99434.31;;;3.76;99.30
16777;BME280;8505;49.456;8.164;2024-01-07T02:34:39;99440.09;;;3.79;99.47
16777;BME280;8505;49.456;8.164;2024-01-07T02:37:07;99434.59;;;3.82;99.68
16777;BME280;8505;49.456;8.164;2024-01-07T02:39:35;99434.72;;;3.81;99.67
16777;BME280;8505;49.456;8.164;2024-01-07T02:42:05;99435.28;;;3.75;99.64
16777;BME280;8505;49.456;8.164;2024-01-07T02:44:32;99436.66;;;3.69;99.69
16777;BME280;8505;49.456;8.164;2024-01-07T02:47:00;99429.75;;;3.68;99.49
16777;BME280;8505;49.456;8.164;2024-01-07T02:49:28;99426.47;;;3.76;99.97
16777;BME280;8505;49.456;8.164;2024-01-07T02:51:56;99430.44;;;3.80;100.00
16777;BME280;8505;49.456;8.164;2024-01-07T02:54:23;99431.69;;;3.85;99.48
16777;BME280;8505;49.456;8.164;2024-01-07T02:56:51;99424.50;;;3.78;100.00
16777;BME280;8505;49.456;8.164;2024-01-07T02:59:20;99436.69;;;3.88;100.00
16777;BME280;8505;49.456;8.164;2024-01-07T03:01:48;99432.66;;;3.84;99.19
16777;BME280;8505;49.456;8.164;2024-01-07T03:04:16;99441.19;;;3.77;99.19
16777;BME280;8505;49.456;8.164;2024-01-07T03:06:44;99440.09;;;3.79;99.22
16777;BME280;8505;49.456;8.164;2024-01-07T03:09:11;99441.06;;;3.78;99.28
16777;BME280;8505;49.456;8.164;2024-01-07T03:11:39;99445.75;;;3.75;99.50
16777;BME280;8505;49.456;8.164;2024-01-07T03:14:07;99446.16;;;3.70;99.44
16777;BME280;8505;49.456;8.164;2024-01-07T03:16:37;99448.31;;;3.65;99.73
16777;BME280;8505;49.456;8.164;2024-01-07T03:19:05;99452.19;;;3.61;100.00
16777;BME280;8505;49.456;8.164;2024-01-07T03:21:33;99443.25;;;3.63;100.00
16777;BME280;8505;49.456;8.164;2024-01-07T03:24:00;99441.84;;;3.59;99.71
16777;BME280;8505;49.456;8.164;2024-01-07T03:26:29;99448.44;;;3.54;100.00
16777;BME280;8505;49.456;8.164;2024-01-07T03:28:59;99451.22;;;3.62;99.65
16777;BME280;8505;49.456;8.164;2024-01-07T03:31:28;99448.19;;;3.57;99.39
16777;BME280;8505;49.456;8.164;2024-01-07T03:33:58;99460.88;;;3.61;100.00
16777;BME280;8505;49.456;8.164;2024-01-07T03:36:26;99448.63;;;3.62;99.38
16777;BME280;8505;49.456;8.164;2024-01-07T03:38:54;99453.72;;;3.63;99.52
16777;BME280;8505;49.456;8.164;2024-01-07T03:41:21;99450.94;;;3.65;99.46
16777;BME280;8505;49.456;8.164;2024-01-07T03:43:49;99453.16;;;3.60;99.85
16777;BME280;8505;49.456;8.164;2024-01-07T03:46:18;99460.88;;;3.61;100.00
16777;BME280;8505;49.456;8.164;2024-01-07T03:48:46;99458.97;;;3.73;99.56
16777;BME280;8505;49.456;8.164;2024-01-07T03:51:15;99457.84;;;3.66;99.73
16777;BME280;8505;49.456;8.164;2024-01-07T03:53:42;99465.97;;;3.63;100.00
16777;BME280;8505;49.456;8.164;2024-01-07T03:56:10;99473.97;;;3.61;99.73
16777;BME280;8505;49.456;8.164;2024-01-07T03:58:38;99471.22;;;3.63;100.00
16777;BME280;8505;49.456;8.164;2024-01-07T04:01:06;99473.25;;;3.59;100.00
16777;BME280;8505;49.456;8.164;2024-01-07T04:03:33;99470.94;;;3.66;100.00
16777;BME280;8505;49.456;8.164;2024-01-07T04:06:01;99481.81;;;3.61;100.00
16777;BME280;8505;49.456;8.164;2024-01-07T04:08:30;99473.16;;;3.71;99.15
16777;BME280;8505;49.456;8.164;2024-01-07T04:10:58;99483.50;;;3.72;99.31
16777;BME280;8505;49.456;8.164;2024-01-07T04:13:28;99485.56;;;3.69;99.25
16777;BME280;8505;49.456;8.164;2024-01-07T04:15:56;99478.25;;;3.72;99.85
16777;BME280;8505;49.456;8.164;2024-01-07T04:18:24;99483.63;;;3.71;99.36
16777;BME280;8505;49.456;8.164;2024-01-07T04:20:52;99484.91;;;3.76;99.32
16777;BME280;8505;49.456;8.164;2024-01-07T04:23:19;99489.56;;;3.73;99.08
16777;BME280;8505;49.456;8.164;2024-01-07T04:25:48;99480.44;;;3.67;99.64
16777;BME280;8505;49.456;8.164;2024-01-07T04:28:16;99483.34;;;3.64;99.30
16777;BME280;8505;49.456;8.164;2024-01-07T04:30:44;99482.25;;;3.66;99.51
16777;BME280;8505;49.456;8.164;2024-01-07T04:33:11;99488.13;;;3.59;100.00
16777;BME280;8505;49.456;8.164;2024-01-07T04:35:39;99489.25;;;3.66;99.49
16777;BME280;8505;49.456;8.164;2024-01-07T04:38:07;99496.69;;;3.61;99.93
16777;BME280;8505;49.456;8.164;2024-01-07T04:40:35;99496.16;;;3.67;99.83
16777;BME280;8505;49.456;8.164;2024-01-07T04:43:04;99491.75;;;3.67;99.56
16777;BME280;8505;49.456;8.164;2024-01-07T04:45:32;99495.78;;;3.81;99.77
16777;BME280;8505;49.456;8.164;2024-01-07T04:47:59;99495.19;;;3.68;99.65
16777;BME280;8505;49.456;8.164;2024-01-07T04:50:28;99498.06;;;3.65;99.59
16777;BME280;8505;49.456;8.164;2024-01-07T04:52:55;99501.41;;;3.67;100.00
16777;BME280;8505;49.456;8.164;2024-01-07T04:55:23;99504.44;;;3.72;99.60
16777;BME280;8505;49.456;8.164;2024-01-07T04:57:51;99497.81;;;3.68;100.00
16777;BME280;8505;49.456;8.164;2024-01-07T05:00:20;99501.41;;;3.67;99.39
16777;BME280;8505;49.456;8.164;2024-01-07T05:02:49;99507.88;;;3.73;99.58
16777;BME280;8505;49.456;8.164;2024-01-07T05:05:17;99512.03;;;3.75;99.65
16777;BME280;8505;49.456;8.164;2024-01-07T05:07:44;99514.38;;;3.78;98.50
16777;BME280;8505;49.456;8.164;2024-01-07T05:10:12;99509.13;;;3.78;98.72
16777;BME280;8505;49.456;8.164;2024-01-07T05:12:40;99508.63;;;3.94;98.50
16777;BME280;8505;49.456;8.164;2024-01-07T05:15:08;99514.28;;;3.99;97.84
16777;BME280;8505;49.456;8.164;2024-01-07T05:17:38;99513.03;;;3.93;97.73
16777;BME280;8505;49.456;8.164;2024-01-07T05:20:06;99520.19;;;3.82;98.47
16777;BME280;8505;49.456;8.164;2024-01-07T05:22:35;99516.34;;;3.95;97.67
16777;BME280;8505;49.456;8.164;2024-01-07T05:25:04;99514.53;;;3.86;97.27
16777;BME280;8505;49.456;8.164;2024-01-07T05:27:32;99526.56;;;3.98;96.91
16777;BME280;8505;49.456;8.164;2024-01-07T05:29:59;99527.09;;;3.92;96.98
16777;BME280;8505;49.456;8.164;2024-01-07T05:32:27;99519.25;;;3.92;97.16
16777;BME280;8505;49.456;8.164;2024-01-07T05:34:56;99526.28;;;3.92;97.55
16777;BME280;8505;49.456;8.164;2024-01-07T05:37:24;99528.59;;;3.85;97.54
16777;BME280;8505;49.456;8.164;2024-01-07T05:39:52;99524.31;;;3.84;97.25
16777;BME280;8505;49.456;8.164;2024-01-07T05:42:20;99528.34;;;3.88;97.31
16777;BME280;8505;49.456;8.164;2024-01-07T05:44:48;99529.13;;;3.70;98.11
16777;BME280;8505;49.456;8.164;2024-01-07T05:47:15;99533.97;;;3.84;97.46
16777;BME280;8505;49.456;8.164;2024-01-07T05:49:44;99536.75;;;3.82;97.60
16777;BME280;8505;49.456;8.164;2024-01-07T05:52:14;99538.91;;;3.77;98.35
16777;BME280;8505;49.456;8.164;2024-01-07T05:54:42;99545.38;;;3.73;98.05
16777;BME280;8505;49.456;8.164;2024-01-07T05:57:10;99551.31;;;3.75;98.36
16777;BME280;8505;49.456;8.164;2024-01-07T05:59:39;99547.28;;;3.71;98.07
16777;BME280;8505;49.456;8.164;2024-01-07T06:02:06;99557.69;;;3.82;98.09
16777;BME280;8505;49.456;8.164;2024-01-07T06:04:34;99550.50;;;3.84;98.02
16777;BME280;8505;49.456;8.164;2024-01-07T06:07:03;99558.03;;;3.68;98.46
16777;BME280;8505;49.456;8.164;2024-01-07T06:09:32;99560.31;;;3.82;98.27
16777;BME280;8505;49.456;8.164;2024-01-07T06:12:00;99566.50;;;3.91;97.56
16777;BME280;8505;49.456;8.164;2024-01-07T06:14:27;99561.09;;;3.83;98.02
16777;BME280;8505;49.456;8.164;2024-01-07T06:16:55;99568.94;;;3.73;98.50
16777;BME280;8505;49.456;8.164;2024-01-07T06:19:23;99565.53;;;3.82;98.28
16777;BME280;8505;49.456;8.164;2024-01-07T06:21:50;99570.13;;;3.99;97.94
16777;BME280;8505;49.456;8.164;2024-01-07T06:24:18;99570.13;;;3.99;98.27
16777;BME280;8505;49.456;8.164;2024-01-07T06:26:47;99577.34;;;4.07;98.38
16777;BME280;8505;49.456;8.164;2024-01-07T06:29:15;99574.50;;;3.89;98.57
16777;BME280;8505;49.456;8.164;2024-01-07T06:31:43;99573.88;;;4.06;97.63
16777;BME280;8505;49.456;8.164;2024-01-07T06:34:11;99578.81;;;4.00;98.42
16777;BME280;8505;49.456;8.164;2024-01-07T06:36:40;99580.63;;;3.99;98.54
16777;BME280;8505;49.456;8.164;2024-01-07T06:39:09;99579.78;;;4.08;97.97
16777;BME280;8505;49.456;8.164;2024-01-07T06:41:37;99578.66;;;4.01;98.07
16777;BME280;8505;49.456;8.164;2024-01-07T06:44:06;99590.22;;;3.89;98.47
16777;BME280;8505;49.456;8.164;2024-01-07T06:46:34;99595.09;;;4.03;98.49
16777;BME280;8505;49.456;8.164;2024-01-07T06:49:01;99596.28;;;3.90;98.88
16777;BME280;8505;49.456;8.164;2024-01-07T06:51:29;99596.47;;;4.07;98.13
16777;BME280;8505;49.456;8.164;2024-01-07T06:53:57;99608.31;;;3.92;97.88
16777;BME280;8505;49.456;8.164;2024-01-07T06:56:25;99613.09;;;3.87;99.12
16777;BME280;8505;49.456;8.164;2024-01-07T06:58:53;99613.47;;;3.83;99.09
16777;BME280;8505;49.456;8.164;2024-01-07T07:01:22;99616.38;;;3.80;99.18
16777;BME280;8505;49.456;8.164;2024-01-07T07:03:50;99623.16;;;3.82;99.16
16777;BME280;8505;49.456;8.164;2024-01-07T07:06:18;99620.91;;;3.78;99.49
16777;BME280;8505;49.456;8.164;2024-01-07T07:08:46;99623.16;;;3.82;99.71
16777;BME280;8505;49.456;8.164;2024-01-07T07:11:14;99634.53;;;3.72;100.00
16777;BME280;8505;49.456;8.164;2024-01-07T07:13:42;99632.94;;;3.80;100.00
16777;BME280;8505;49.456;8.164;2024-01-07T07:16:09;99624.13;;;3.81;100.00
16777;BME280;8505;49.456;8.164;2024-01-07T07:18:38;99629.69;;;3.67;100.00
16777;BME280;8505;49.456;8.164;2024-01-07T07:21:06;99630.72;;;3.76;100.00
16777;BME280;8505;49.456;8.164;2024-01-07T07:23:34;99640.88;;;3.69;100.00
16777;BME280;8505;49.456;8.164;2024-01-07T07:26:02;99641.72;;;3.79;100.00
16777;BME280;8505;49.456;8.164;2024-01-07T07:28:30;99649.47;;;3.81;100.00
16777;BME280;8505;49.456;8.164;2024-01-07T07:30:56;99650.16;;;3.83;100.00
16777;BME280;8505;49.456;8.164;2024-01-07T07:33:24;99648.53;;;3.91;100.00
16777;BME280;8505;49.456;8.164;2024-01-07T07:35:53;99659.13;;;3.80;99.74
16777;BME280;8505;49.456;8.164;2024-01-07T07:38:21;99657.50;;;3.89;100.00
16777;BME280;8505;49.456;8.164;2024-01-07T07:40:49;99659.00;;;3.82;99.87
16777;BME280;8505;49.456;8.164;2024-01-07T07:43:19;99665.66;;;3.95;99.46
16777;BME280;8505;49.456;8.164;2024-01-07T07:45:48;99665.19;;;3.81;100.00
16777;BME280;8505;49.456;8.164;2024-01-07T07:48:15;99664.00;;;3.94;100.00
16777;BME280;8505;49.456;8.164;2024-01-07T07:50:43;99666.88;;;3.91;100.00
16777;BME280;8505;49.456;8.164;2024-01-07T07:53:12;99673.50;;;3.95;100.00
16777;BME280;8505;49.456;8.164;2024-01-07T07:55:40;99679.06;;;4.02;100.00
16777;BME280;8505;49.456;8.164;2024-01-07T07:58:08;99677.94;;;3.95;100.00
16777;BME280;8505;49.456;8.164;2024-01-07T08:00:36;99677.69;;;4.07;100.00
16777;BME280;8505;49.456;8.164;2024-01-07T08:03:04;99689.19;;;3.86;100.00
16777;BME280;8505;49.456;8.164;2024-01-07T08:05:32;99691.59;;;3.98;100.00
16777;BME280;8505;49.456;8.164;2024-01-07T08:08:00;99692.56;;;3.97;100.00
16777;BME280;8505;49.456;8.164;2024-01-07T08:10:29;99693.06;;;3.91;100.00
16777;BME280;8505;49.456;8.164;2024-01-07T08:12:58;99702.31;;;3.95;100.00
16777;BME280;8505;49.456;8.164;2024-01-07T08:15:26;99698.22;;;4.02;100.00
16777;BME280;8505;49.456;8.164;2024-01-07T08:17:54;99703.88;;;3.98;100.00
16777;BME280;8505;49.456;8.164;2024-01-07T08:20:21;99712.19;;;3.82;100.00
16777;BME280;8505;49.456;8.164;2024-01-07T08:22:49;99713.31;;;3.89;100.00
16777;BME280;8505;49.456;8.164;2024-01-07T08:25:17;99718.63;;;3.99;100.00
16777;BME280;8505;49.456;8.164;2024-01-07T08:27:46;99718.75;;;3.77;100.00
16777;BME280;8505;49.456;8.164;2024-01-07T08:30:18;99725.09;;;3.95;100.00
16777;BME280;8505;49.456;8.164;2024-01-07T08:32:45;99724.25;;;3.94;100.00
16777;BME280;8505;49.456;8.164;2024-01-07T08:35:13;99731.41;;;3.72;100.00
16777;BME280;8505;49.456;8.164;2024-01-07T08:37:45;99730.34;;;3.74;100.00
16777;BME280;8505;49.456;8.164;2024-01-07T08:40:13;99724.06;;;3.65;100.00
16777;BME280;8505;49.456;8.164;2024-01-07T08:42:41;99730.97;;;3.66;100.00
16777;BME280;8505;49.456;8.164;2024-01-07T08:45:10;99737.59;;;3.71;100.00
16777;BME280;8505;49.456;8.164;2024-01-07T08:47:38;99743.66;;;3.92;99.09
16777;BME280;8505;49.456;8.164;2024-01-07T08:50:10;99746.50;;;3.79;98.84
16777;BME280;8505;49.456;8.164;2024-01-07T08:52:39;99749.59;;;3.52;99.97
16777;BME280;8505;49.456;8.164;2024-01-07T08:55:07;99751.59;;;3.81;100.00
16777;BME280;8505;49.456;8.164;2024-01-07T08:57:37;99759.25;;;3.73;100.00
16777;BME280;8505;49.456;8.164;2024-01-07T09:00:06;99761.38;;;3.58;99.46
16777;BME280;8505;49.456;8.164;2024-01-07T09:02:36;99756.00;;;3.59;99.68
16777;BME280;8505;49.456;8.164;2024-01-07T09:05:09;99757.09;;;3.57;99.32
16777;BME280;8505;49.456;8.164;2024-01-07T09:07:38;99766.97;;;3.53;98.53
16777;BME280;8505;49.456;8.164;2024-01-07T09:10:07;99775.22;;;3.49;99.09
16777;BME280;8505;49.456;8.164;2024-01-07T09:12:38;99773.97;;;3.64;98.57
16777;BME280;8505;49.456;8.164;2024-01-07T09:15:06;99780.19;;;3.52;98.26
16777;BME280;8505;49.456;8.164;2024-01-07T09:17:37;99783.78;;;3.40;99.08
16777;BME280;8505;49.456;8.164;2024-01-07T09:20:07;99785.06;;;3.24;98.38
16777;BME280;8505;49.456;8.164;2024-01-07T09:22:35;99788.13;;;3.30;98.47
16777;BME280;8505;49.456;8.164;2024-01-07T09:25:04;99789.91;;;3.29;98.24
16777;BME280;8505;49.456;8.164;2024-01-07T09:27:33;99792.97;;;3.34;98.18
16777;BME280;8505;49.456;8.164;2024-01-07T09:30:01;99791.88;;;3.48;97.64
16777;BME280;8505;49.456;8.164;2024-01-07T09:32:29;99795.53;;;3.24;98.06
16777;BME280;8505;49.456;8.164;2024-01-07T09:35:00;99799.34;;;3.09;99.01
16777;BME280;8505;49.456;8.164;2024-01-07T09:37:28;99810.19;;;3.48;97.57
16777;BME280;8505;49.456;8.164;2024-01-07T09:39:56;99805.13;;;3.67;97.19
16777;BME280;8505;49.456;8.164;2024-01-07T09:42:24;99805.91;;;3.47;96.89
16777;BME280;8505;49.456;8.164;2024-01-07T09:44:52;99803.81;;;3.30;97.53
16777;BME280;8505;49.456;8.164;2024-01-07T09:47:20;99803.94;;;3.39;97.11
16777;BME280;8505;49.456;8.164;2024-01-07T09:49:50;99810.50;;;3.22;98.69
16777;BME280;8505;49.456;8.164;2024-01-07T09:52:20;99814.75;;;3.35;97.13
16777;BME280;8505;49.456;8.164;2024-01-07T09:54:51;99809.34;;;3.47;96.61
16777;BME280;8505;49.456;8.164;2024-01-07T09:57:19;99815.38;;;3.27;93.92
16777;BME280;8505;49.456;8.164;2024-01-07T09:59:47;99812.63;;;3.29;91.98
16777;BME280;8505;49.456;8.164;2024-01-07T10:02:15;99819.28;;;3.33;91.06
16777;BME280;8505;49.456;8.164;2024-01-07T10:04:43;99815.72;;;3.22;91.47
16777;BME280;8505;49.456;8.164;2024-01-07T10:07:14;99829.09;;;3.08;91.88
16777;BME280;8505;49.456;8.164;2024-01-07T10:09:43;99830.91;;;3.40;91.35
16777;BME280;8505;49.456;8.164;2024-01-07T10:12:11;99827.97;;;3.22;90.13
16777;BME280;8505;49.456;8.164;2024-01-07T10:14:40;99827.28;;;3.20;89.29
16777;BME280;8505;49.456;8.164;2024-01-07T10:17:15;99835.34;;;3.28;89.25
16777;BME280;8505;49.456;8.164;2024-01-07T10:19:44;99826.00;;;3.03;88.80
16777;BME280;8505;49.456;8.164;2024-01-07T10:22:13;99838.84;;;3.06;89.80
16777;BME280;8505;49.456;8.164;2024-01-07T10:24:42;99826.59;;;3.07;89.18
16777;BME280;8505;49.456;8.164;2024-01-07T10:27:11;99837.28;;;3.04;89.10
16777;BME280;8505;49.456;8.164;2024-01-07T10:29:39;99836.09;;;3.19;88.05
16777;BME280;8505;49.456;8.164;2024-01-07T10:32:07;99836.56;;;3.13;89.06
16777;BME280;8505;49.456;8.164;2024-01-07T10:34:35;99837.38;;;3.24;88.51
16777;BME280;8505;49.456;8.164;2024-01-07T10:37:04;99841.59;;;2.94;88.78
16777;BME280;8505;49.456;8.164;2024-01-07T10:39:32;99836.97;;;2.86;88.61
16777;BME280;8505;49.456;8.164;2024-01-07T10:42:01;99839.56;;;2.97;88.23
16777;BME280;8505;49.456;8.164;2024-01-07T10:44:30;99850.03;;;3.08;87.95
16777;BME280;8505;49.456;8.164;2024-01-07T10:46:59;99840.63;;;3.06;87.59
16777;BME280;8505;49.456;8.164;2024-01-07T10:49:27;99847.19;;;3.00;87.53
16777;BME280;8505;49.456;8.164;2024-01-07T10:52:03;99845.97;;;3.04;88.29
16777;BME280;8505;49.456;8.164;2024-01-07T10:54:33;99845.97;;;3.04;88.38
16777;BME280;8505;49.456;8.164;2024-01-07T10:57:07;99843.25;;;2.95;88.01
16777;BME280;8505;49.456;8.164;2024-01-07T10:59:37;99852.75;;;2.73;87.98
16777;BME280;8505;49.456;8.164;2024-01-07T11:02:05;99864.53;;;2.68;88.34
16777;BME280;8505;49.456;8.164;2024-01-07T11:04:43;99850.63;;;2.90;88.50
16777;BME280;8505;49.456;8.164;2024-01-07T11:07:18;99844.44;;;2.91;87.83
16777;BME280;8505;49.456;8.164;2024-01-07T11:09:55;99854.78;;;2.92;87.62
16777;BME280;8505;49.456;8.164;2024-01-07T11:12:25;99855.25;;;3.08;88.01
16777;BME280;8505;49.456;8.164;2024-01-07T11:14:53;99855.50;;;2.72;87.69
16777;BME280;8505;49.456;8.164;2024-01-07T11:17:40;99855.16;;;2.76;86.99
16777;BME280;8505;49.456;8.164;2024-01-07T11:20:13;99860.38;;;2.99;87.02
16777;BME280;8505;49.456;8.164;2024-01-07T11:22:41;99862.63;;;2.92;87.55
16777;BME280;8505;49.456;8.164;2024-01-07T11:25:30;99862.63;;;2.92;86.15
16777;BME280;8505;49.456;8.164;2024-01-07T11:28:01;99857.66;;;2.89;86.29
16777;BME280;8505;49.456;8.164;2024-01-07T11:30:38;99868.28;;;3.31;87.76
16777;BME280;8505;49.456;8.164;2024-01-07T11:33:06;99872.88;;;2.95;85.79
16777;BME280;8505;49.456;8.164;2024-01-07T11:35:54;99858.66;;;3.31;85.21
16777;BME280;8505;49.456;8.164;2024-01-07T11:38:23;99869.66;;;3.46;84.02
16777;BME280;8505;49.456;8.164;2024-01-07T11:40:51;99866.66;;;3.18;84.59
16777;BME280;8505;49.456;8.164;2024-01-07T11:43:20;99863.44;;;3.04;85.25
16777;BME280;8505;49.456;8.164;2024-01-07T11:45:49;99870.25;;;2.95;85.54
16777;BME280;8505;49.456;8.164;2024-01-07T11:48:17;99874.28;;;2.88;85.01
16777;BME280;8505;49.456;8.164;2024-01-07T11:50:45;99865.94;;;3.05;85.87
16777;BME280;8505;49.456;8.164;2024-01-07T11:53:15;99877.38;;;2.71;85.73
16777;BME280;8505;49.456;8.164;2024-01-07T11:55:45;99876.06;;;2.65;85.62
16777;BME280;8505;49.456;8.164;2024-01-07T11:58:12;99874.75;;;2.93;84.58
16777;BME280;8505;49.456;8.164;2024-01-07T12:00:42;99869.28;;;3.07;85.07
16777;BME280;8505;49.456;8.164;2024-01-07T12:03:09;99874.63;;;3.06;85.14
16777;BME280;8505;49.456;8.164;2024-01-07T12:05:38;99883.09;;;2.87;85.52
16777;BME280;8505;49.456;8.164;2024-01-07T12:08:10;99868.69;;;3.04;84.08
16777;BME280;8505;49.456;8.164;2024-01-07T12:10:37;99867.63;;;3.06;83.65
16777;BME280;8505;49.456;8.164;2024-01-07T12:13:05;99864.63;;;3.11;83.86
16777;BME280;8505;49.456;8.164;2024-01-07T12:15:35;99865.22;;;3.03;84.19
16777;BME280;8505;49.456;8.164;2024-01-07T12:18:05;99855.25;;;2.97;84.28
16777;BME280;8505;49.456;8.164;2024-01-07T12:20:33;99854.06;;;3.12;84.26
16777;BME280;8505;49.456;8.164;2024-01-07T12:23:05;99863.69;;;3.01;84.46
16777;BME280;8505;49.456;8.164;2024-01-07T12:25:34;99865.09;;;3.16;83.39
16777;BME280;8505;49.456;8.164;2024-01-07T12:28:03;99873.41;;;3.32;83.99
16777;BME280;8505;49.456;8.164;2024-01-07T12:30:34;99870.41;;;3.37;83.29
16777;BME280;8505;49.456;8.164;2024-01-07T12:33:05;99873.91;;;3.04;85.79
16777;BME280;8505;49.456;8.164;2024-01-07T12:35:34;99886.50;;;3.21;86.39
16777;BME280;8505;49.456;8.164;2024-01-07T12:38:02;99893.41;;;3.22;85.13
16777;BME280;8505;49.456;8.164;2024-01-07T12:40:30;99891.53;;;3.02;85.47
16777;BME280;8505;49.456;8.164;2024-01-07T12:42:57;99887.13;;;3.02;85.83
16777;BME280;8505;49.456;8.164;2024-01-07T12:45:25;99882.72;;;3.03;86.31
16777;BME280;8505;49.456;8.164;2024-01-07T12:47:53;99890.34;;;2.83;86.84
16777;BME280;8505;49.456;8.164;2024-01-07T12:50:26;99896.63;;;2.81;86.11
16777;BME280;8505;49.456;8.164;2024-01-07T12:52:56;99895.44;;;2.85;86.65
16777;BME280;8505;49.456;8.164;2024-01-07T12:55:24;99898.06;;;2.96;85.94
16777;BME280;8505;49.456;8.164;2024-01-07T12:57:53;99894.22;;;2.78;86.57
16777;BME280;8505;49.456;8.164;2024-01-07T13:00:23;99909.44;;;2.73;86.12
16777;BME280;8505;49.456;8.164;2024-01-07T13:02:51;99903.63;;;2.80;86.49
16777;BME280;8505;49.456;8.164;2024-01-07T13:05:19;99908.66;;;2.83;85.90
16777;BME280;8505;49.456;8.164;2024-01-07T13:07:48;99904.22;;;2.62;85.99
16777;BME280;8505;49.456;8.164;2024-01-07T13:10:16;99912.88;;;2.51;86.94
16777;BME280;8505;49.456;8.164;2024-01-07T13:12:44;99910.53;;;2.81;85.65
16777;BME280;8505;49.456;8.164;2024-01-07T13:15:20;99919.41;;;2.57;84.80
16777;BME280;8505;49.456;8.164;2024-01-07T13:17:49;99906.84;;;2.73;84.53
16777;BME280;8505;49.456;8.164;2024-01-07T13:20:17;99917.41;;;2.60;84.30
16777;BME280;8505;49.456;8.164;2024-01-07T13:22:47;99926.84;;;3.07;84.20
16777;BME280;8505;49.456;8.164;2024-01-07T13:25:16;99918.84;;;2.98;82.89
16777;BME280;8505;49.456;8.164;2024-01-07T13:27:44;99925.13;;;2.84;82.84